Time;durP1;ratioP1;P1;durP2;ratioP2;P2;SDS_P1;SDS_P2;PMS_P1;PMS_P2;Temp;Humidity;BMP_temperature;BMP_pressure;BME280_temperature;BME280_humidity;BME280_pressure;Samples;Min_cycle;Max_cycle;Signal;HPM_P1;HPM_P2
2024/02/13 00:00:35;;;;;;;21.25;9.82;;;;;;;;;;5070853;28;20483;-65
2024/02/13 00:03:02;;;;;;;17.17;9.20;;;;;;;;;;5071350;28;20031;-65
2024/02/13 00:05:28;;;;;;;20.92;8.13;;;;;;;;;;5074647;28;20111;-65
2024/02/13 00:07:54;;;;;;;25.88;9.82;;;;;;;;;;5073484;28;20103;-65
2024/02/13 00:10:24;;;;;;;21.13;9.32;;;;;;;;;;5068607;28;20475;-65
2024/02/13 00:12:51;;;;;;;23.20;9.63;;;;;;;;;;5066776;28;20028;-65
2024/02/13 00:15:20;;;;;;;21.67;9.18;;;;;;;;;;5068154;28;20052;-65
2024/02/13 00:17:46;;;;;;;18.55;8.90;;;;;;;;;;5070665;28;20021;-65
2024/02/13 00:20:14;;;;;;;25.77;9.85;;;;;;;;;;5066562;28;20047;-64
2024/02/13 00:22:41;;;;;;;16.25;8.65;;;;;;;;;;5072196;28;20021;-65
2024/02/13 00:25:08;;;;;;;23.73;9.23;;;;;;;;;;5071260;28;20433;-65
2024/02/13 00:27:35;;;;;;;21.02;9.43;;;;;;;;;;5061810;28;20393;-65
2024/02/13 00:30:04;;;;;;;17.42;8.10;;;;;;;;;;5057722;28;20025;-65
2024/02/13 00:32:31;;;;;;;19.27;8.60;;;;;;;;;;5072345;28;20474;-65
2024/02/13 00:34:57;;;;;;;29.45;10.75;;;;;;;;;;5072234;28;20032;-65
2024/02/13 00:37:23;;;;;;;20.73;9.07;;;;;;;;;;5070425;28;20069;-65
2024/02/13 00:39:49;;;;;;;23.42;9.13;;;;;;;;;;5070653;28;20040;-65
2024/02/13 00:42:15;;;;;;;23.30;8.43;;;;;;;;;;5069343;28;20383;-65
2024/02/13 00:44:44;;;;;;;21.27;9.30;;;;;;;;;;5065843;28;20111;-65
2024/02/13 00:47:10;;;;;;;20.05;9.55;;;;;;;;;;5067210;28;20044;-65
2024/02/13 00:49:37;;;;;;;17.67;9.90;;;;;;;;;;5069136;28;20085;-65
2024/02/13 00:52:04;;;;;;;27.88;11.00;;;;;;;;;;5069319;28;20063;-65
2024/02/13 00:54:30;;;;;;;26.67;10.52;;;;;;;;;;5069499;28;20074;-65
2024/02/13 00:56:56;;;;;;;27.90;11.70;;;;;;;;;;5071163;28;20021;-65
2024/02/13 00:59:25;;;;;;;23.23;10.75;;;;;;;;;;5078964;28;21333;-65
2024/02/13 01:01:51;;;;;;;21.63;11.18;;;;;;;;;;5069168;28;20716;-65
2024/02/13 01:04:17;;;;;;;27.08;11.05;;;;;;;;;;5071017;28;20047;-65
2024/02/13 01:06:43;;;;;;;23.77;10.77;;;;;;;;;;5051371;28;20391;-65
2024/02/13 01:09:09;;;;;;;25.15;10.75;;;;;;;;;;5051236;28;20025;-64
2024/02/13 01:11:35;;;;;;;22.30;9.82;;;;;;;;;;5078210;28;20032;-67
2024/02/13 01:14:01;;;;;;;22.55;9.57;;;;;;;;;;5075658;28;20513;-65
2024/02/13 01:16:28;;;;;;;19.52;9.68;;;;;;;;;;5075610;28;20051;-65
2024/02/13 01:18:54;;;;;;;18.25;9.32;;;;;;;;;;5077627;28;20023;-65
2024/02/13 01:21:22;;;;;;;32.45;10.77;;;;;;;;;;5070699;28;20050;-65
2024/02/13 01:23:48;;;;;;;20.67;10.00;;;;;;;;;;5072379;28;20020;-65
2024/02/13 01:26:14;;;;;;;21.88;10.20;;;;;;;;;;5071671;28;20025;-65
2024/02/13 01:28:40;;;;;;;28.52;10.55;;;;;;;;;;5070450;28;20471;-65
2024/02/13 01:31:06;;;;;;;22.52;9.45;;;;;;;;;;5053686;28;20033;-64
2024/02/13 01:33:33;;;;;;;26.27;9.77;;;;;;;;;;5068145;28;20410;-65
2024/02/13 01:35:59;;;;;;;28.92;10.88;;;;;;;;;;5073426;28;20068;-64
2024/02/13 01:38:29;;;;;;;24.50;9.85;;;;;;;;;;5069341;28;20055;-65
2024/02/13 01:40:55;;;;;;;21.60;10.45;;;;;;;;;;5069017;28;20024;-65
2024/02/13 01:43:22;;;;;;;24.13;9.60;;;;;;;;;;5071857;28;20046;-65
2024/02/13 01:45:48;;;;;;;24.75;11.75;;;;;;;;;;5067703;28;20025;-65
2024/02/13 01:48:17;;;;;;;26.13;11.95;;;;;;;;;;5066835;28;20024;-65
2024/02/13 01:50:43;;;;;;;20.10;10.65;;;;;;;;;;5074879;28;20024;-65
2024/02/13 01:53:10;;;;;;;21.77;10.20;;;;;;;;;;5054077;28;20044;-65
2024/02/13 01:55:36;;;;;;;26.52;9.52;;;;;;;;;;5069622;28;20051;-65
2024/02/13 01:58:04;;;;;;;24.08;9.98;;;;;;;;;;5076222;28;20067;-65
2024/02/13 02:00:31;;;;;;;24.58;9.93;;;;;;;;;;5078943;28;20086;-65
2024/02/13 02:02:58;;;;;;;17.50;8.85;;;;;;;;;;5082070;28;20454;-66
2024/02/13 02:05:25;;;;;;;24.60;10.35;;;;;;;;;;5075841;28;20028;-65
2024/02/13 02:07:51;;;;;;;24.27;10.10;;;;;;;;;;5075385;28;20020;-65
2024/02/13 02:10:17;;;;;;;20.20;9.77;;;;;;;;;;5072855;28;20047;-65
2024/02/13 02:12:49;;;;;;;19.02;9.60;;;;;;;;;;5077754;28;20454;-65
2024/02/13 02:15:16;;;;;;;21.15;10.75;;;;;;;;;;5071196;28;20029;-65
2024/02/13 02:17:51;;;;;;;26.88;10.05;;;;;;;;;;5071642;28;20020;-65
2024/02/13 02:20:17;;;;;;;27.58;10.90;;;;;;;;;;5074814;28;20029;-65
2024/02/13 02:22:45;;;;;;;21.33;9.90;;;;;;;;;;5075097;28;20016;-65
2024/02/13 02:25:11;;;;;;;24.10;10.35;;;;;;;;;;5071484;28;20489;-65
2024/02/13 02:27:38;;;;;;;19.08;9.30;;;;;;;;;;5074590;28;20037;-65
2024/02/13 02:30:06;;;;;;;18.60;9.13;;;;;;;;;;5054115;28;20021;-64
2024/02/13 02:32:32;;;;;;;23.38;9.55;;;;;;;;;;5074507;28;20078;-65
2024/02/13 02:34:59;;;;;;;19.63;9.52;;;;;;;;;;5073616;28;20111;-65
2024/02/13 02:37:25;;;;;;;32.53;10.48;;;;;;;;;;5078345;28;20035;-65
2024/02/13 02:39:51;;;;;;;33.83;10.23;;;;;;;;;;5079623;28;20017;-65
2024/02/13 02:42:17;;;;;;;27.75;11.68;;;;;;;;;;5074429;28;20112;-65
2024/02/13 02:44:43;;;;;;;25.83;10.25;;;;;;;;;;5069942;28;20048;-65
2024/02/13 02:47:11;;;;;;;24.83;10.48;;;;;;;;;;5081224;28;20024;-65
2024/02/13 02:49:37;;;;;;;21.00;9.38;;;;;;;;;;5072861;28;20052;-65
2024/02/13 02:52:07;;;;;;;23.17;10.93;;;;;;;;;;5070612;28;20647;-65
2024/02/13 02:54:33;;;;;;;20.92;9.70;;;;;;;;;;5072416;28;20031;-65
2024/02/13 02:56:59;;;;;;;25.55;10.57;;;;;;;;;;5076389;28;20032;-65
2024/02/13 02:59:26;;;;;;;18.23;9.80;;;;;;;;;;5072363;28;20035;-65
2024/02/13 03:01:53;;;;;;;24.13;9.55;;;;;;;;;;5074148;28;20038;-64
2024/02/13 03:04:19;;;;;;;22.23;9.93;;;;;;;;;;5068309;28;20031;-63
2024/02/13 03:06:45;;;;;;;25.15;10.35;;;;;;;;;;5073613;28;20036;-65
2024/02/13 03:09:12;;;;;;;20.70;9.77;;;;;;;;;;5073519;28;20032;-65
2024/02/13 03:11:38;;;;;;;19.70;9.95;;;;;;;;;;5077047;28;20679;-64
2024/02/13 03:14:04;;;;;;;21.00;9.27;;;;;;;;;;5067829;28;20432;-65
2024/02/13 03:16:34;;;;;;;22.52;9.65;;;;;;;;;;5064880;28;20033;-65
2024/02/13 03:19:00;;;;;;;19.38;8.93;;;;;;;;;;5072704;28;20028;-65
2024/02/13 03:21:26;;;;;;;22.55;10.20;;;;;;;;;;5065699;28;20534;-66
2024/02/13 03:23:52;;;;;;;23.88;9.38;;;;;;;;;;5071483;28;20027;-65
2024/02/13 03:26:18;;;;;;;20.27;10.18;;;;;;;;;;5072911;28;20028;-65
2024/02/13 03:28:44;;;;;;;26.10;9.52;;;;;;;;;;5075611;28;20394;-65
2024/02/13 03:31:10;;;;;;;21.55;9.90;;;;;;;;;;5075242;28;20482;-66
2024/02/13 03:33:36;;;;;;;22.98;10.23;;;;;;;;;;5066168;28;20478;-66
2024/02/13 03:36:02;;;;;;;25.00;10.73;;;;;;;;;;5071676;28;20491;-66
2024/02/13 03:38:28;;;;;;;22.90;9.60;;;;;;;;;;5075604;28;20475;-66
2024/02/13 03:40:54;;;;;;;36.65;10.70;;;;;;;;;;5068674;28;20032;-65
2024/02/13 03:43:21;;;;;;;23.63;10.85;;;;;;;;;;5075404;28;20020;-65
2024/02/13 03:45:48;;;;;;;24.73;9.98;;;;;;;;;;5065816;28;20028;-65
2024/02/13 03:48:14;;;;;;;21.98;10.00;;;;;;;;;;5078060;28;20030;-65
2024/02/13 03:50:41;;;;;;;23.52;10.77;;;;;;;;;;5072770;28;20033;-66
2024/02/13 03:53:07;;;;;;;31.80;10.80;;;;;;;;;;5073067;28;20055;-65
2024/02/13 03:55:33;;;;;;;26.83;12.00;;;;;;;;;;5068746;28;20050;-65
2024/02/13 03:57:59;;;;;;;25.77;12.50;;;;;;;;;;5071421;28;20040;-65
2024/02/13 04:00:25;;;;;;;31.15;12.45;;;;;;;;;;5064701;28;20013;-65
2024/02/13 04:02:51;;;;;;;22.25;10.77;;;;;;;;;;5076599;28;20027;-64
2024/02/13 04:05:17;;;;;;;22.50;10.68;;;;;;;;;;5071330;28;20036;-64
2024/02/13 04:07:43;;;;;;;21.40;10.98;;;;;;;;;;5070468;28;20100;-66
2024/02/13 04:10:09;;;;;;;25.23;11.35;;;;;;;;;;5068782;28;20028;-64
2024/02/13 04:12:35;;;;;;;31.95;12.20;;;;;;;;;;5072887;28;20027;-64
2024/02/13 04:15:02;;;;;;;31.45;10.75;;;;;;;;;;5069868;28;20489;-64
2024/02/13 04:17:28;;;;;;;32.83;11.73;;;;;;;;;;5082683;28;20024;-64
2024/02/13 04:19:54;;;;;;;31.55;12.32;;;;;;;;;;5072228;28;20020;-64
2024/02/13 04:22:20;;;;;;;32.22;12.40;;;;;;;;;;5066779;28;20054;-64
2024/02/13 04:24:46;;;;;;;21.55;10.48;;;;;;;;;;5065542;28;20039;-64
2024/02/13 04:27:12;;;;;;;27.73;12.55;;;;;;;;;;5080998;28;20095;-64
2024/02/13 04:29:41;;;;;;;21.85;10.93;;;;;;;;;;5066926;28;20052;-66
2024/02/13 04:32:07;;;;;;;23.90;11.43;;;;;;;;;;5074486;28;20049;-65
2024/02/13 04:34:33;;;;;;;27.70;12.10;;;;;;;;;;5070555;28;20059;-66
2024/02/13 04:37:00;;;;;;;27.65;11.60;;;;;;;;;;5069126;28;20032;-65
2024/02/13 04:39:26;;;;;;;28.95;11.13;;;;;;;;;;5071161;28;20028;-65
2024/02/13 04:41:52;;;;;;;21.52;10.48;;;;;;;;;;5070996;28;20402;-65
2024/02/13 04:44:20;;;;;;;21.15;9.55;;;;;;;;;;5065353;28;20027;-65
2024/02/13 04:46:45;;;;;;;22.30;9.88;;;;;;;;;;5064461;28;20372;-65
2024/02/13 04:49:12;;;;;;;23.48;10.02;;;;;;;;;;5074764;28;20126;-66
2024/02/13 04:51:38;;;;;;;22.98;9.10;;;;;;;;;;5071898;28;20032;-66
2024/02/13 04:54:04;;;;;;;20.73;9.98;;;;;;;;;;5071933;28;20024;-65
2024/02/13 04:56:30;;;;;;;24.27;9.45;;;;;;;;;;5067521;28;20035;-65
2024/02/13 04:58:56;;;;;;;21.38;10.82;;;;;;;;;;5068881;28;20033;-65
2024/02/13 05:01:25;;;;;;;21.60;9.82;;;;;;;;;;5064273;28;20158;-65
2024/02/13 05:09:06;;;;;;;27.17;11.27;;;;;;;;;;5074690;28;20035;-66
2024/02/13 05:11:32;;;;;;;21.67;9.73;;;;;;;;;;5064061;28;20505;-66
2024/02/13 05:14:02;;;;;;;17.17;9.35;;;;;;;;;;5069222;28;20036;-65
2024/02/13 05:16:29;;;;;;;26.52;10.18;;;;;;;;;;5066585;28;20072;-65
2024/02/13 05:18:55;;;;;;;20.73;9.73;;;;;;;;;;5074837;28;20033;-65
2024/02/13 05:21:21;;;;;;;23.17;9.80;;;;;;;;;;5064213;28;20082;-64
2024/02/13 05:23:48;;;;;;;17.67;8.88;;;;;;;;;;5070846;28;20471;-65
2024/02/13 05:26:14;;;;;;;20.05;8.65;;;;;;;;;;5065244;28;20070;-65
2024/02/13 05:28:41;;;;;;;19.58;9.02;;;;;;;;;;5069872;28;20032;-65
2024/02/13 05:31:07;;;;;;;19.25;8.95;;;;;;;;;;5069890;28;20032;-65
2024/02/13 05:33:33;;;;;;;19.45;8.85;;;;;;;;;;5067056;28;20051;-64
2024/02/13 05:36:01;;;;;;;18.05;8.45;;;;;;;;;;5062928;28;20021;-66
2024/02/13 05:38:27;;;;;;;20.77;8.77;;;;;;;;;;5070555;28;20050;-66
2024/02/13 05:40:53;;;;;;;15.50;7.03;;;;;;;;;;5074512;28;20459;-66
2024/02/13 05:43:20;;;;;;;15.18;7.85;;;;;;;;;;5055822;28;20104;-66
2024/02/13 05:45:49;;;;;;;14.93;6.70;;;;;;;;;;5068499;28;20017;-66
2024/02/13 05:48:18;;;;;;;14.23;7.15;;;;;;;;;;5062375;28;20124;-66
2024/02/13 05:50:44;;;;;;;13.02;6.90;;;;;;;;;;5068555;28;20037;-65
2024/02/13 05:53:10;;;;;;;17.48;6.30;;;;;;;;;;5071986;28;20028;-66
2024/02/13 05:55:37;;;;;;;11.75;6.18;;;;;;;;;;5067048;28;20029;-66
2024/02/13 05:58:03;;;;;;;11.48;6.10;;;;;;;;;;5066519;28;20086;-65
2024/02/13 06:00:28;;;;;;;16.50;5.82;;;;;;;;;;5065906;28;20025;-65
2024/02/13 06:02:55;;;;;;;12.27;5.57;;;;;;;;;;5064173;28;20032;-64
2024/02/13 06:05:24;;;;;;;11.25;5.85;;;;;;;;;;5062309;28;20021;-64
2024/02/13 06:07:51;;;;;;;10.27;5.38;;;;;;;;;;5064771;28;20032;-64
2024/02/13 06:10:17;;;;;;;12.40;6.18;;;;;;;;;;5066188;28;20397;-65
2024/02/13 06:12:44;;;;;;;13.80;5.80;;;;;;;;;;5059341;28;20025;-65
2024/02/13 06:15:10;;;;;;;10.75;5.57;;;;;;;;;;5067980;28;20029;-64
2024/02/13 06:17:36;;;;;;;11.27;5.47;;;;;;;;;;5067177;28;20024;-65
2024/02/13 06:20:06;;;;;;;10.25;5.43;;;;;;;;;;5076063;28;20035;-64
2024/02/13 06:22:33;;;;;;;9.07;4.82;;;;;;;;;;5070251;28;20033;-65
2024/02/13 06:25:00;;;;;;;12.60;5.93;;;;;;;;;;5071155;28;20021;-64
2024/02/13 06:27:26;;;;;;;8.57;4.75;;;;;;;;;;5064235;28;20502;-65
2024/02/13 06:29:52;;;;;;;13.15;5.63;;;;;;;;;;5065398;28;20077;-65
2024/02/13 06:32:18;;;;;;;9.20;4.65;;;;;;;;;;5068188;28;20120;-64
2024/02/13 06:34:44;;;;;;;10.00;5.07;;;;;;;;;;5067454;28;20028;-64
2024/02/13 06:37:10;;;;;;;14.23;5.10;;;;;;;;;;5065906;28;20443;-64
2024/02/13 06:39:36;;;;;;;14.23;5.40;;;;;;;;;;5064001;28;20016;-64
2024/02/13 06:42:02;;;;;;;10.90;5.10;;;;;;;;;;5070218;28;20033;-64
2024/02/13 06:44:30;;;;;;;12.27;4.50;;;;;;;;;;5063954;28;20406;-65
2024/02/13 06:46:57;;;;;;;9.65;4.25;;;;;;;;;;5060838;28;20073;-64
2024/02/13 06:49:23;;;;;;;17.48;4.78;;;;;;;;;;5068549;28;20035;-65
2024/02/13 06:51:49;;;;;;;11.00;5.13;;;;;;;;;;5064899;28;20037;-66
2024/02/13 06:54:15;;;;;;;7.90;5.22;;;;;;;;;;5065748;28;20064;-65
2024/02/13 06:56:41;;;;;;;13.48;4.72;;;;;;;;;;5071265;28;20394;-65
2024/02/13 06:59:07;;;;;;;12.40;5.18;;;;;;;;;;5067786;28;20024;-61
2024/02/13 07:01:33;;;;;;;8.23;4.50;;;;;;;;;;5073894;28;22037;-61
2024/02/13 07:03:59;;;;;;;11.15;5.75;;;;;;;;;;5074197;28;20031;-61
2024/02/13 07:06:25;;;;;;;8.30;4.70;;;;;;;;;;5069875;28;20036;-61
2024/02/13 07:08:52;;;;;;;11.50;5.15;;;;;;;;;;5069208;28;20036;-61
2024/02/13 07:11:17;;;;;;;12.32;4.90;;;;;;;;;;5071833;28;20482;-60
2024/02/13 07:13:44;;;;;;;8.50;5.03;;;;;;;;;;5067289;28;20028;-61
2024/02/13 07:16:10;;;;;;;7.25;4.38;;;;;;;;;;5070068;28;20025;-60
2024/02/13 07:18:36;;;;;;;8.43;4.07;;;;;;;;;;5070974;28;20090;-61
2024/02/13 07:21:06;;;;;;;12.10;4.40;;;;;;;;;;5072199;28;20024;-61
2024/02/13 07:23:32;;;;;;;11.77;4.15;;;;;;;;;;5071482;28;20029;-61
2024/02/13 07:25:58;;;;;;;10.38;3.63;;;;;;;;;;5078357;28;20502;-61
2024/02/13 07:28:23;;;;;;;16.80;4.60;;;;;;;;;;5067310;28;20036;-61
2024/02/13 07:30:49;;;;;;;7.07;3.63;;;;;;;;;;5074989;28;20028;-59
2024/02/13 07:33:16;;;;;;;7.03;3.42;;;;;;;;;;5071717;28;20036;-61
2024/02/13 07:35:42;;;;;;;13.68;4.10;;;;;;;;;;5074735;28;20053;-61
2024/02/13 07:38:08;;;;;;;14.73;4.13;;;;;;;;;;5064266;28;20096;-61
2024/02/13 07:40:34;;;;;;;9.45;4.15;;;;;;;;;;5078359;28;20032;-60
2024/02/13 07:43:00;;;;;;;9.80;4.80;;;;;;;;;;5075962;28;20103;-61
2024/02/13 07:45:26;;;;;;;7.80;4.22;;;;;;;;;;5067484;28;20024;-61
2024/02/13 07:47:53;;;;;;;9.65;3.88;;;;;;;;;;5067418;28;20031;-61
2024/02/13 07:50:21;;;;;;;9.77;3.42;;;;;;;;;;5066225;28;20039;-60
2024/02/13 07:52:47;;;;;;;11.95;3.95;;;;;;;;;;5072520;28;20030;-61
2024/02/13 07:55:13;;;;;;;10.82;3.33;;;;;;;;;;5069460;28;20021;-61
2024/02/13 07:57:39;;;;;;;13.38;4.15;;;;;;;;;;5067181;28;20028;-61
2024/02/13 08:00:06;;;;;;;9.00;3.35;;;;;;;;;;5066909;28;20039;-60
2024/02/13 08:02:33;;;;;;;13.20;4.93;;;;;;;;;;5068869;28;20035;-60
2024/02/13 08:04:59;;;;;;;6.18;3.08;;;;;;;;;;5068903;28;20048;-61
2024/02/13 08:07:27;;;;;;;11.15;4.30;;;;;;;;;;5066002;28;20402;-61
2024/02/13 08:09:53;;;;;;;8.02;2.95;;;;;;;;;;5071948;28;20083;-59
2024/02/13 08:12:19;;;;;;;9.20;2.67;;;;;;;;;;5074604;28;20039;-60
2024/02/13 08:14:45;;;;;;;5.78;3.00;;;;;;;;;;5074742;28;20489;-61
2024/02/13 08:17:12;;;;;;;7.90;2.42;;;;;;;;;;5069380;28;20039;-61
2024/02/13 08:19:40;;;;;;;4.50;1.90;;;;;;;;;;5063847;28;20012;-61
2024/02/13 08:22:06;;;;;;;6.93;2.20;;;;;;;;;;5071577;28;20604;-61
2024/02/13 08:24:33;;;;;;;5.57;2.42;;;;;;;;;;5069329;28;20032;-61
2024/02/13 08:26:59;;;;;;;7.07;2.10;;;;;;;;;;5068402;28;20040;-61
2024/02/13 08:29:25;;;;;;;3.83;1.52;;;;;;;;;;5074129;28;20059;-61
2024/02/13 08:31:52;;;;;;;6.60;1.95;;;;;;;;;;5070692;28;20028;-63
2024/02/13 08:34:18;;;;;;;5.57;1.80;;;;;;;;;;5069848;28;20025;-61
2024/02/13 08:36:45;;;;;;;4.82;1.70;;;;;;;;;;5069470;28;20032;-61
2024/02/13 08:39:11;;;;;;;3.20;1.52;;;;;;;;;;5074170;28;20016;-61
2024/02/13 08:41:37;;;;;;;7.55;1.58;;;;;;;;;;5069296;28;20029;-62
2024/02/13 08:44:09;;;;;;;16.50;1.83;;;;;;;;;;5062682;28;20560;-61
2024/02/13 08:46:35;;;;;;;2.72;1.48;;;;;;;;;;5066515;28;20039;-61
2024/02/13 08:49:01;;;;;;;3.10;1.55;;;;;;;;;;5072619;28;20382;-59
2024/02/13 08:51:28;;;;;;;3.38;1.80;;;;;;;;;;5067371;28;20430;-61
2024/02/13 08:53:56;;;;;;;6.10;1.65;;;;;;;;;;5068662;28;20107;-61
2024/02/13 08:56:22;;;;;;;3.42;1.65;;;;;;;;;;5070099;28;20028;-60
2024/02/13 08:58:52;;;;;;;13.00;1.88;;;;;;;;;;5061506;28;20115;-60
2024/02/13 09:01:20;;;;;;;7.90;1.60;;;;;;;;;;5063270;28;20105;-61
2024/02/13 09:03:47;;;;;;;9.57;1.60;;;;;;;;;;5067149;28;20040;-61
2024/02/13 09:06:13;;;;;;;5.03;1.70;;;;;;;;;;5054911;28;20051;-61
2024/02/13 09:08:41;;;;;;;18.98;5.97;;;;;;;;;;5066581;28;20059;-61
2024/02/13 09:11:08;;;;;;;5.20;1.77;;;;;;;;;;5066677;28;20017;-60
2024/02/13 09:13:34;;;;;;;4.75;1.25;;;;;;;;;;5064441;28;20032;-60
2024/02/13 09:16:00;;;;;;;5.55;1.38;;;;;;;;;;5069613;28;20029;-62
2024/02/13 09:18:27;;;;;;;7.53;1.65;;;;;;;;;;5064944;28;20406;-61
2024/02/13 09:20:54;;;;;;;7.15;1.42;;;;;;;;;;5061928;28;20050;-60
2024/02/13 09:23:20;;;;;;;7.80;1.48;;;;;;;;;;5066612;28;20395;-61
2024/02/13 09:25:49;;;;;;;6.07;1.40;;;;;;;;;;5071068;28;20020;-61
2024/02/13 09:28:18;;;;;;;3.33;1.30;;;;;;;;;;5071055;28;20032;-61
2024/02/13 09:30:47;;;;;;;3.08;1.15;;;;;;;;;;5066225;28;20025;-61
2024/02/13 09:33:13;;;;;;;10.10;1.30;;;;;;;;;;5067322;28;20009;-61
2024/02/13 09:35:39;;;;;;;7.97;2.75;;;;;;;;;;5068013;28;20036;-61
2024/02/13 09:38:06;;;;;;;13.43;1.63;;;;;;;;;;5069404;28;20028;-60
2024/02/13 09:40:33;;;;;;;6.82;1.23;;;;;;;;;;5072182;28;20098;-61
2024/02/13 09:42:59;;;;;;;5.70;1.40;;;;;;;;;;5070198;28;20464;-61
2024/02/13 09:45:26;;;;;;;7.43;1.73;;;;;;;;;;5064539;28;20020;-61
2024/02/13 09:47:53;;;;;;;4.05;1.55;;;;;;;;;;5067965;28;20049;-61
2024/02/13 09:50:19;;;;;;;6.75;1.55;;;;;;;;;;5064226;28;20029;-61
2024/02/13 09:52:51;;;;;;;3.50;0.88;;;;;;;;;;5063603;28;20024;-61
2024/02/13 09:55:19;;;;;;;4.72;1.30;;;;;;;;;;5061409;28;20021;-61
2024/02/13 09:57:48;;;;;;;8.80;1.58;;;;;;;;;;5069450;28;20119;-61
2024/02/13 10:00:16;;;;;;;7.07;1.15;;;;;;;;;;5066765;28;20023;-62
2024/02/13 10:02:42;;;;;;;3.00;1.13;;;;;;;;;;5073286;28;20065;-62
2024/02/13 10:05:10;;;;;;;4.13;1.00;;;;;;;;;;5068952;28;20100;-59
2024/02/13 10:07:37;;;;;;;5.35;1.13;;;;;;;;;;5072501;28;20036;-61
2024/02/13 10:10:04;;;;;;;8.70;1.77;;;;;;;;;;5068513;28;20028;-61
2024/02/13 10:12:30;;;;;;;1.65;0.90;;;;;;;;;;5067540;28;20038;-60
2024/02/13 10:14:59;;;;;;;2.17;1.00;;;;;;;;;;5067829;28;20028;-59
2024/02/13 10:17:25;;;;;;;4.03;1.17;;;;;;;;;;5072848;28;20043;-61
2024/02/13 10:19:52;;;;;;;5.35;1.40;;;;;;;;;;5066951;28;20013;-61
2024/02/13 10:22:20;;;;;;;4.57;1.35;;;;;;;;;;5071742;28;20020;-62
2024/02/13 10:24:47;;;;;;;9.65;3.28;;;;;;;;;;5066772;28;20020;-61
2024/02/13 10:27:14;;;;;;;3.30;0.85;;;;;;;;;;5070373;28;20028;-58
2024/02/13 10:29:45;;;;;;;3.55;1.30;;;;;;;;;;5069921;28;20025;-61
2024/02/13 10:32:11;;;;;;;11.27;1.50;;;;;;;;;;5071419;28;20032;-61
2024/02/13 10:34:37;;;;;;;7.32;1.70;;;;;;;;;;5065987;28;20079;-61
2024/02/13 10:37:10;;;;;;;6.68;1.83;;;;;;;;;;5071859;28;20093;-60
2024/02/13 10:39:36;;;;;;;7.13;1.60;;;;;;;;;;5078889;28;20478;-57
2024/02/13 10:42:10;;;;;;;6.35;1.83;;;;;;;;;;5068320;28;20040;-59
2024/02/13 10:44:41;;;;;;;6.07;1.38;;;;;;;;;;5069883;28;20024;-59
2024/02/13 10:47:10;;;;;;;6.30;1.92;;;;;;;;;;5073553;28;20036;-59
2024/02/13 10:49:49;;;;;;;3.08;1.30;;;;;;;;;;5050540;28;20029;-60
2024/02/13 10:52:16;;;;;;;5.57;1.10;;;;;;;;;;5069270;28;20021;-60
2024/02/13 10:54:46;;;;;;;10.00;1.60;;;;;;;;;;5076641;28;20028;-60
2024/02/13 10:57:13;;;;;;;4.97;1.35;;;;;;;;;;5070972;28;20098;-59
2024/02/13 10:59:40;;;;;;;5.88;1.48;;;;;;;;;;5071002;28;20024;-59
2024/02/13 11:02:07;;;;;;;5.28;1.10;;;;;;;;;;5077527;28;20020;-59
2024/02/13 11:04:34;;;;;;;5.68;1.17;;;;;;;;;;5073327;28;20036;-58
2024/02/13 11:07:00;;;;;;;4.32;1.10;;;;;;;;;;5073351;28;20103;-59
2024/02/13 11:09:28;;;;;;;6.15;0.93;;;;;;;;;;5073506;28;20057;-60
2024/02/13 11:11:54;;;;;;;6.25;1.95;;;;;;;;;;5071818;28;20050;-59
2024/02/13 11:14:23;;;;;;;3.85;0.73;;;;;;;;;;5071045;28;20024;-58
2024/02/13 11:17:10;;;;;;;5.15;1.10;;;;;;;;;;5070958;28;20041;-60
2024/02/13 11:19:58;;;;;;;27.42;1.77;;;;;;;;;;5069916;28;20085;-59
2024/02/13 11:22:41;;;;;;;2.13;0.80;;;;;;;;;;5074573;28;20115;-59
2024/02/13 11:25:11;;;;;;;1.30;0.70;;;;;;;;;;5069382;28;20516;-58
2024/02/13 11:27:40;;;;;;;4.43;1.05;;;;;;;;;;5070924;28;20075;-59
2024/02/13 11:30:07;;;;;;;5.30;1.00;;;;;;;;;;5070363;28;20046;-57
2024/02/13 11:32:33;;;;;;;5.82;1.00;;;;;;;;;;5070794;28;20589;-60
2024/02/13 11:34:59;;;;;;;7.63;0.93;;;;;;;;;;5070879;28;20054;-58
2024/02/13 11:37:30;;;;;;;8.88;1.10;;;;;;;;;;5069022;28;20021;-59
2024/02/13 11:39:58;;;;;;;8.90;0.98;;;;;;;;;;5067626;28;20033;-59
2024/02/13 11:42:25;;;;;;;3.55;0.80;;;;;;;;;;5072015;28;20040;-59
2024/02/13 11:44:52;;;;;;;4.80;0.98;;;;;;;;;;5073685;28;20509;-58
2024/02/13 11:47:28;;;;;;;3.05;0.70;;;;;;;;;;5072643;28;20093;-56
2024/02/13 11:49:54;;;;;;;8.65;2.78;;;;;;;;;;5068455;28;20035;-59
2024/02/13 11:52:21;;;;;;;2.92;0.80;;;;;;;;;;5070379;28;20494;-59
2024/02/13 11:54:48;;;;;;;15.40;5.07;;;;;;;;;;5068675;28;20025;-59
2024/02/13 11:57:15;;;;;;;4.68;1.52;;;;;;;;;;5069090;28;20024;-58
2024/02/13 11:59:41;;;;;;;4.07;0.90;;;;;;;;;;5076582;28;20024;-59
2024/02/13 12:02:14;;;;;;;6.53;1.08;;;;;;;;;;5071405;28;20071;-59
2024/02/13 12:04:42;;;;;;;3.28;0.70;;;;;;;;;;5071385;28;20028;-57
2024/02/13 12:07:08;;;;;;;3.30;1.10;;;;;;;;;;5074706;28;20020;-59
2024/02/13 12:09:38;;;;;;;3.83;0.50;;;;;;;;;;5070155;28;20040;-57
2024/02/13 12:12:06;;;;;;;4.72;0.85;;;;;;;;;;5073529;28;20032;-60
2024/02/13 12:14:32;;;;;;;5.18;0.50;;;;;;;;;;5071783;28;20148;-59
2024/02/13 12:17:07;;;;;;;6.78;0.80;;;;;;;;;;5070041;28;20032;-59
2024/02/13 12:19:38;;;;;;;2.25;0.60;;;;;;;;;;5067733;28;20070;-59
2024/02/13 12:22:11;;;;;;;6.22;0.80;;;;;;;;;;5073581;28;20105;-60
2024/02/13 12:24:39;;;;;;;4.05;0.70;;;;;;;;;;5068989;28;20398;-57
2024/02/13 12:27:06;;;;;;;7.07;0.70;;;;;;;;;;5068577;28;20033;-59
2024/02/13 12:29:38;;;;;;;5.03;0.52;;;;;;;;;;5072107;28;20077;-57
2024/02/13 12:32:06;;;;;;;1.52;0.60;;;;;;;;;;5060546;28;20119;-58
2024/02/13 12:34:33;;;;;;;2.05;0.52;;;;;;;;;;5072349;28;20039;-56
2024/02/13 12:37:00;;;;;;;6.75;0.77;;;;;;;;;;5068222;28;20024;-55
2024/02/13 12:39:30;;;;;;;3.42;1.17;;;;;;;;;;5062656;28;20090;-58
2024/02/13 12:41:57;;;;;;;3.97;0.60;;;;;;;;;;5068380;28;20116;-61
2024/02/13 12:44:23;;;;;;;1.15;0.52;;;;;;;;;;5064667;28;20086;-58
2024/02/13 12:46:51;;;;;;;1.02;0.60;;;;;;;;;;5062926;28;20024;-56
2024/02/13 12:49:19;;;;;;;2.90;0.65;;;;;;;;;;5061566;28;20051;-59
2024/02/13 12:51:45;;;;;;;5.05;0.70;;;;;;;;;;5059158;28;20028;-56
2024/02/13 12:54:11;;;;;;;2.83;0.70;;;;;;;;;;5063062;28;20506;-55
2024/02/13 12:56:40;;;;;;;1.23;0.50;;;;;;;;;;5066014;28;21988;-56
2024/02/13 12:59:10;;;;;;;6.18;0.88;;;;;;;;;;5065726;28;20518;-58
2024/02/13 13:01:44;;;;;;;1.25;0.50;;;;;;;;;;5061515;28;20032;-57
2024/02/13 13:04:12;;;;;;;2.05;0.65;;;;;;;;;;5067433;28;20021;-59
2024/02/13 13:06:38;;;;;;;2.75;0.52;;;;;;;;;;5047837;28;20414;-57
2024/02/13 13:09:08;;;;;;;2.53;0.70;;;;;;;;;;5065088;28;20021;-59
2024/02/13 13:11:34;;;;;;;5.43;0.68;;;;;;;;;;5067569;28;20086;-59
2024/02/13 13:14:00;;;;;;;6.47;0.80;;;;;;;;;;5058826;28;20477;-58
2024/02/13 13:16:28;;;;;;;3.20;0.47;;;;;;;;;;5059086;28;20024;-59
2024/02/13 13:18:57;;;;;;;5.80;0.73;;;;;;;;;;5058804;28;20911;-60
2024/02/13 13:21:25;;;;;;;9.48;0.63;;;;;;;;;;5064760;28;20474;-59
2024/02/13 13:23:53;;;;;;;5.15;0.73;;;;;;;;;;5060226;28;20029;-59
2024/02/13 13:26:20;;;;;;;1.85;0.90;;;;;;;;;;5068242;28;20267;-58
2024/02/13 13:28:48;;;;;;;2.38;0.70;;;;;;;;;;5067973;28;20024;-59
2024/02/13 13:31:15;;;;;;;2.20;0.60;;;;;;;;;;5063929;28;20045;-58
2024/02/13 13:33:41;;;;;;;8.35;1.02;;;;;;;;;;5063520;28;20049;-57
2024/02/13 13:36:08;;;;;;;1.02;0.47;;;;;;;;;;5063588;28;20031;-59
2024/02/13 13:38:36;;;;;;;4.30;0.75;;;;;;;;;;5067662;28;20094;-58
2024/02/13 13:41:03;;;;;;;1.10;0.70;;;;;;;;;;5063943;28;20025;-59
2024/02/13 13:43:30;;;;;;;9.10;0.82;;;;;;;;;;5065156;28;20059;-59
2024/02/13 13:45:57;;;;;;;3.33;0.65;;;;;;;;;;5063522;28;20568;-57
2024/02/13 13:48:24;;;;;;;1.33;0.70;;;;;;;;;;5061451;28;20111;-61
2024/02/13 13:50:50;;;;;;;7.43;1.10;;;;;;;;;;5061186;28;20029;-58
2024/02/13 13:53:17;;;;;;;2.50;0.85;;;;;;;;;;5066244;28;20029;-60
2024/02/13 13:55:43;;;;;;;4.63;0.70;;;;;;;;;;5063687;28;20055;-58
2024/02/13 13:58:10;;;;;;;1.45;0.70;;;;;;;;;;5068376;28;20402;-56
2024/02/13 14:00:36;;;;;;;1.60;0.73;;;;;;;;;;5060202;28;20028;-58
2024/02/13 14:03:03;;;;;;;3.92;0.73;;;;;;;;;;5060162;28;20025;-61
2024/02/13 14:05:34;;;;;;;3.85;0.93;;;;;;;;;;5071493;28;20074;-59
2024/02/13 14:08:03;;;;;;;1.60;0.70;;;;;;;;;;5063252;28;20029;-58
2024/02/13 14:10:30;;;;;;;5.97;0.90;;;;;;;;;;5064177;28;20033;-59
2024/02/13 14:13:00;;;;;;;6.00;1.02;;;;;;;;;;5064617;28;20033;-57
2024/02/13 14:15:29;;;;;;;4.20;0.90;;;;;;;;;;5061370;28;20390;-59
2024/02/13 14:17:58;;;;;;;3.25;0.80;;;;;;;;;;5065640;28;20033;-59
2024/02/13 14:20:24;;;;;;;2.25;0.90;;;;;;;;;;5061053;28;21219;-60
2024/02/13 14:22:51;;;;;;;4.60;0.90;;;;;;;;;;5062434;28;20468;-59
2024/02/13 14:25:20;;;;;;;8.15;1.80;;;;;;;;;;5062764;28;20119;-58
2024/02/13 14:27:46;;;;;;;3.63;0.73;;;;;;;;;;5065877;28;20055;-59
2024/02/13 14:30:14;;;;;;;3.92;0.70;;;;;;;;;;5060162;28;20021;-58
2024/02/13 14:32:40;;;;;;;1.98;1.08;;;;;;;;;;5048235;28;20144;-59
2024/02/13 14:35:07;;;;;;;4.88;1.10;;;;;;;;;;5063045;28;20060;-55
2024/02/13 14:37:33;;;;;;;4.75;0.90;;;;;;;;;;5063263;28;20047;-57